Etusivu
METAR-TAF:

METAR-TAF

Lentoasemat :

Comanche National Grassland

Springfield, Colorado, Yhdysvallat

Leveyspiiri: 37-17N, Pituuspiiri: 102-37W, korkeus merenpinnasta: 1335 m

Tämänhetkinen sää

Tämä raportti tehtiin 49 minuuttia sitten, kello 15.56 UTC
Tuuli 11 kn lounaasta puuskistuen 16 kn:hen
Lämpötila 34°C
Kosteus 25%
Ilmanpaine 1016 hPa

METAR: KSPD 201556Z AUTO 23011G16KT 34/11 A3001 RMK AO1 SLP082 T03390111

Aika: 10:45 (16:45 UTC)


TAF: puuttuu

Säähavainnot ja -ennusteet yli 4000 lentoasemalta (METAR- ja TAF-raportit).

Käytössä olevat sääasemat on merkitty karttaan keltaisilla ja punaisilla pisteillä.

Aseta hiiri pisteen päälle nähdäksesi sääaseman nimen.

Klikkaa sitten nähdäksesi säähavainnot ja -ennusteet.

Kartan vaihtaminen: klikkaa mustalla rastilla varustettuja vihreitä pisteitä, niin voit zoomata sisään; viivalla varustettua vihreää pistettä, niin voit zoomata ulos tai vihreitä nuolia, niin pääset viereisille kartoille.


METAR-TAF: